Time;durP1;ratioP1;P1;durP2;ratioP2;P2;SDS_P1;SDS_P2;PMS_P1;PMS_P2;Temp;Humidity;BMP_temperature;BMP_pressure;BME280_temperature;BME280_humidity;BME280_pressure;Samples;Min_cycle;Max_cycle;Signal;HPM_P1;HPM_P2
2023/07/23 00:00:31;;;;;;;2.58;1.35;;;20.30;94.50;;;;;;5048733;28;20137;-73
2023/07/23 00:02:57;;;;;;;4.63;1.90;;;20.10;94.10;;;;;;5058440;28;20048;-74
2023/07/23 00:05:24;;;;;;;4.10;2.15;;;19.90;94.50;;;;;;5065402;28;20044;-73
2023/07/23 00:07:57;;;;;;;4.78;2.10;;;19.90;95.10;;;;;;5047982;28;20040;-73
2023/07/23 00:10:23;;;;;;;4.28;2.25;;;19.80;95.20;;;;;;5057612;28;20042;-73
2023/07/23 00:12:50;;;;;;;3.53;1.50;;;19.80;95.40;;;;;;5064771;28;20020;-73
2023/07/23 00:15:16;;;;;;;3.80;1.80;;;19.80;95.80;;;;;;5064285;28;20040;-74
2023/07/23 00:17:42;;;;;;;4.00;1.85;;;19.70;96.20;;;;;;5047921;28;20144;-72
2023/07/23 00:20:09;;;;;;;2.70;1.38;;;19.70;96.60;;;;;;5064370;28;20100;-72
2023/07/23 00:22:39;;;;;;;3.63;1.35;;;19.60;96.80;;;;;;5064950;28;20276;-73
2023/07/23 00:25:06;;;;;;;3.75;1.67;;;19.60;97.00;;;;;;5064141;28;20456;-73
2023/07/23 00:27:32;;;;;;;3.17;1.65;;;19.50;97.20;;;;;;5060012;28;20128;-73
2023/07/23 00:29:58;;;;;;;4.20;2.13;;;19.50;97.50;;;;;;5064152;28;20085;-73
2023/07/23 00:32:24;;;;;;;5.80;1.42;;;19.50;97.70;;;;;;5047414;28;20032;-74
2023/07/23 00:34:50;;;;;;;4.85;2.28;;;19.40;98.10;;;;;;5046282;28;20024;-74
2023/07/23 00:37:15;;;;;;;4.10;2.03;;;19.30;98.40;;;;;;5060068;28;20107;-74
2023/07/23 00:39:42;;;;;;;2.78;1.35;;;19.30;98.70;;;;;;5063990;28;20108;-73
2023/07/23 00:42:08;;;;;;;2.33;1.17;;;19.20;99.00;;;;;;5030769;28;20040;-74
2023/07/23 00:44:34;;;;;;;3.15;1.92;;;19.20;99.30;;;;;;5046101;28;20028;-73
2023/07/23 00:47:02;;;;;;;3.67;1.67;;;19.20;99.60;;;;;;5059721;28;20493;-73
2023/07/23 00:49:29;;;;;;;3.67;1.38;;;19.20;99.80;;;;;;5063723;28;20040;-74
2023/07/23 00:51:56;;;;;;;3.22;1.58;;;19.20;99.90;;;;;;5059626;28;20120;-73
2023/07/23 00:54:22;;;;;;;9.10;1.80;;;19.10;99.90;;;;;;5063642;28;20016;-73
2023/07/23 00:56:48;;;;;;;3.63;1.80;;;19.10;99.90;;;;;;5047790;28;20039;-74
2023/07/23 00:59:14;;;;;;;2.90;1.60;;;19.10;99.90;;;;;;5045431;28;20038;-73
2023/07/23 01:01:40;;;;;;;4.15;2.47;;;19.10;99.90;;;;;;5063019;28;20059;-72
2023/07/23 01:04:06;;;;;;;5.38;2.00;;;19.00;99.90;;;;;;5054322;28;20037;-73
2023/07/23 01:06:35;;;;;;;4.32;1.60;;;19.00;99.90;;;;;;5024922;28;20098;-73
2023/07/23 01:09:01;;;;;;;3.75;1.92;;;18.90;99.90;;;;;;5028516;28;20393;-73
2023/07/23 01:11:28;;;;;;;5.15;2.50;;;18.90;99.90;;;;;;5036990;28;20028;-73
2023/07/23 01:13:55;;;;;;;4.38;1.70;;;18.80;99.90;;;;;;5033089;28;20025;-73
2023/07/23 01:16:23;;;;;;;4.60;1.63;;;18.70;99.90;;;;;;5053533;28;20093;-73
2023/07/23 01:18:49;;;;;;;4.53;1.90;;;18.70;99.90;;;;;;5041827;28;20394;-73
2023/07/23 01:21:17;;;;;;;6.32;2.05;;;18.60;99.90;;;;;;5051412;28;20173;-74
2023/07/23 01:23:43;;;;;;;3.55;1.45;;;18.50;99.90;;;;;;5041496;28;20035;-74
2023/07/23 01:26:11;;;;;;;5.68;2.45;;;18.50;99.90;;;;;;5034957;28;20384;-73
2023/07/23 01:28:36;;;;;;;11.15;2.33;;;18.50;99.90;;;;;;5041219;28;20021;-72
2023/07/23 01:31:03;;;;;;;2.58;1.67;;;18.40;99.90;;;;;;5051536;28;20047;-74
2023/07/23 01:33:29;;;;;;;4.78;1.45;;;18.30;99.90;;;;;;5041136;28;20048;-73
2023/07/23 01:35:57;;;;;;;3.83;1.85;;;18.30;99.90;;;;;;5033679;28;20027;-74
2023/07/23 01:38:24;;;;;;;8.98;2.03;;;18.30;99.90;;;;;;5054116;28;20032;-73
2023/07/23 01:40:50;;;;;;;5.25;1.95;;;18.20;99.90;;;;;;5060473;28;20031;-74
2023/07/23 01:43:17;;;;;;;3.20;1.67;;;18.20;99.90;;;;;;5040073;28;20025;-74
2023/07/23 01:45:44;;;;;;;3.05;1.70;;;18.10;99.90;;;;;;5066091;28;20081;-74
2023/07/23 01:48:13;;;;;;;4.15;2.40;;;18.10;99.90;;;;;;5043431;28;20038;-74
2023/07/23 01:50:40;;;;;;;2.97;1.50;;;18.00;99.90;;;;;;5032940;28;20058;-74
2023/07/23 01:53:07;;;;;;;3.88;1.67;;;18.00;99.90;;;;;;5052947;28;20094;-73
2023/07/23 01:55:34;;;;;;;3.95;1.75;;;17.90;99.90;;;;;;5064841;28;20420;-73
2023/07/23 01:58:00;;;;;;;4.63;1.42;;;17.80;99.90;;;;;;5045094;28;20082;-73
2023/07/23 02:00:26;;;;;;;3.13;1.83;;;17.80;99.90;;;;;;5045821;28;20029;-73
2023/07/23 02:02:52;;;;;;;4.22;1.88;;;17.80;99.90;;;;;;5058081;28;20116;-73
2023/07/23 02:05:19;;;;;;;4.00;1.40;;;17.70;99.90;;;;;;5044699;28;20481;-73
2023/07/23 02:07:45;;;;;;;4.93;1.80;;;17.70;99.90;;;;;;5045728;28;20107;-74
2023/07/23 02:10:12;;;;;;;3.35;1.73;;;17.70;99.90;;;;;;5062062;28;20025;-74
2023/07/23 02:12:38;;;;;;;2.72;1.52;;;17.60;99.90;;;;;;5045438;28;20032;-74
2023/07/23 02:15:05;;;;;;;2.78;1.58;;;17.60;99.90;;;;;;5054566;28;20029;-73
2023/07/23 02:17:30;;;;;;;3.60;1.50;;;17.50;99.90;;;;;;5049353;28;20048;-72
2023/07/23 02:19:56;;;;;;;3.05;1.48;;;17.50;99.90;;;;;;5053311;28;20399;-73
2023/07/23 02:22:22;;;;;;;2.58;1.70;;;17.50;99.90;;;;;;5035963;28;20074;-73
2023/07/23 02:24:48;;;;;;;4.60;1.60;;;17.50;99.90;;;;;;5027718;28;20431;-73
2023/07/23 02:27:14;;;;;;;2.20;1.30;;;17.40;99.90;;;;;;5044905;28;20043;-73
2023/07/23 02:29:40;;;;;;;4.15;1.50;;;17.40;99.90;;;;;;5044001;28;20028;-74
2023/07/23 02:32:09;;;;;;;3.03;1.63;;;17.40;99.90;;;;;;5045798;28;20040;-72
2023/07/23 02:34:34;;;;;;;4.78;1.88;;;17.40;99.90;;;;;;5027733;28;20024;-73
2023/07/23 02:37:00;;;;;;;2.58;1.23;;;17.40;99.90;;;;;;5063116;28;20038;-73
2023/07/23 02:39:26;;;;;;;7.72;2.30;;;17.40;99.90;;;;;;5061923;28;20052;-74
2023/07/23 02:41:52;;;;;;;3.97;1.90;;;17.40;99.90;;;;;;5058100;28;20041;-74
2023/07/23 02:44:17;;;;;;;5.78;1.25;;;17.40;99.90;;;;;;5057972;28;20477;-74
2023/07/23 02:46:43;;;;;;;2.58;1.20;;;17.40;99.90;;;;;;5031742;28;20037;-73
2023/07/23 02:49:09;;;;;;;3.42;1.60;;;17.40;99.90;;;;;;5042643;28;20021;-73
2023/07/23 02:51:34;;;;;;;3.28;1.45;;;17.50;99.90;;;;;;5045000;28;20110;-73
2023/07/23 02:54:01;;;;;;;3.60;1.92;;;17.60;99.90;;;;;;5041272;28;20037;-73
2023/07/23 02:56:26;;;;;;;4.15;1.98;;;17.50;99.90;;;;;;5047430;28;20029;-73
2023/07/23 02:58:52;;;;;;;2.83;1.48;;;17.40;99.90;;;;;;5053636;28;20055;-73
2023/07/23 03:01:20;;;;;;;3.00;1.30;;;17.40;99.90;;;;;;5048736;28;20504;-73
2023/07/23 03:03:47;;;;;;;5.95;1.75;;;17.30;99.90;;;;;;5042363;28;20078;-73
2023/07/23 03:06:14;;;;;;;6.28;1.88;;;17.30;99.90;;;;;;5039319;28;20032;-73
2023/07/23 03:08:40;;;;;;;4.18;1.73;;;17.20;99.90;;;;;;5035146;28;20102;-73
2023/07/23 03:11:06;;;;;;;3.33;1.52;;;17.10;99.90;;;;;;5050530;28;20036;-73
2023/07/23 03:13:32;;;;;;;3.03;1.48;;;17.10;99.90;;;;;;5039808;28;20033;-73
2023/07/23 03:15:58;;;;;;;7.45;2.15;;;17.00;99.90;;;;;;5031065;28;20075;-73
2023/07/23 03:18:24;;;;;;;5.38;1.67;;;17.00;99.90;;;;;;5050916;28;20033;-73
2023/07/23 03:20:49;;;;;;;4.30;1.63;;;17.00;99.90;;;;;;5066309;28;20036;-73
2023/07/23 03:23:15;;;;;;;3.50;1.55;;;17.00;99.90;;;;;;5058923;28;20025;-73
2023/07/23 03:25:41;;;;;;;3.55;1.52;;;16.90;99.90;;;;;;5047186;28;20131;-73
2023/07/23 03:28:07;;;;;;;4.07;1.30;;;17.00;99.90;;;;;;5043047;28;20044;-73
2023/07/23 03:30:33;;;;;;;4.88;1.15;;;17.00;99.90;;;;;;5063856;28;20066;-74
2023/07/23 03:33:00;;;;;;;3.65;1.77;;;16.90;99.90;;;;;;5043984;28;20082;-73
2023/07/23 03:35:25;;;;;;;3.28;1.50;;;16.90;99.90;;;;;;5044843;28;20029;-73
2023/07/23 03:37:51;;;;;;;2.40;1.30;;;16.90;99.90;;;;;;5059857;28;20033;-74
2023/07/23 03:40:17;;;;;;;4.60;1.48;;;16.80;99.90;;;;;;5030339;28;20054;-72
2023/07/23 03:42:43;;;;;;;4.53;1.90;;;16.70;99.90;;;;;;5045480;28;20107;-74
2023/07/23 03:45:09;;;;;;;2.60;1.35;;;16.70;99.90;;;;;;5052742;28;20063;-73
2023/07/23 03:47:34;;;;;;;5.88;1.45;;;16.60;99.90;;;;;;5042569;28;20104;-74
2023/07/23 03:50:00;;;;;;;3.53;1.35;;;16.70;99.90;;;;;;5053188;28;20528;-74
2023/07/23 03:52:26;;;;;;;1.48;1.15;;;16.60;99.90;;;;;;5048051;28;20496;-73
2023/07/23 03:54:52;;;;;;;4.90;1.90;;;16.60;99.90;;;;;;5064677;28;20066;-73
2023/07/23 03:57:17;;;;;;;4.30;2.13;;;16.60;99.90;;;;;;5060569;28;20020;-74
2023/07/23 03:59:46;;;;;;;2.95;1.67;;;16.60;99.90;;;;;;5064602;28;20024;-73
2023/07/23 04:02:12;;;;;;;2.08;1.35;;;16.60;99.90;;;;;;5048664;28;20071;-74
2023/07/23 04:04:39;;;;;;;5.90;1.88;;;16.70;99.90;;;;;;5064516;28;20253;-74
2023/07/23 04:07:06;;;;;;;3.63;1.90;;;16.70;99.90;;;;;;5062394;22;20053;-69
2023/07/23 04:09:33;;;;;;;3.17;1.40;;;16.60;99.90;;;;;;5064571;28;20039;-69
2023/07/23 04:11:59;;;;;;;2.55;1.45;;;16.60;99.90;;;;;;5066899;28;20029;-69
2023/07/23 04:14:25;;;;;;;4.18;2.08;;;16.60;99.90;;;;;;5060456;28;20077;-68
2023/07/23 04:16:53;;;;;;;3.03;1.70;;;16.60;99.90;;;;;;5027001;28;20499;-70
2023/07/23 04:19:19;;;;;;;3.00;1.45;;;16.60;99.90;;;;;;5015221;28;20040;-69
2023/07/23 04:21:45;;;;;;;3.33;1.48;;;16.70;99.90;;;;;;5031574;28;20600;-69
2023/07/23 04:24:11;;;;;;;4.53;1.60;;;16.70;99.90;;;;;;5042978;28;20034;-69
2023/07/23 04:26:36;;;;;;;2.85;1.58;;;16.80;99.90;;;;;;5049524;28;20044;-68
2023/07/23 04:29:02;;;;;;;4.10;1.92;;;16.80;99.90;;;;;;5039939;28;20083;-69
2023/07/23 04:31:28;;;;;;;3.22;1.25;;;16.90;99.90;;;;;;5050044;28;20029;-69
2023/07/23 04:33:54;;;;;;;3.53;1.75;;;17.00;99.90;;;;;;5038892;28;20079;-69
2023/07/23 04:36:20;;;;;;;3.28;1.73;;;16.90;99.90;;;;;;5052535;28;20469;-69
2023/07/23 04:38:46;;;;;;;4.72;1.95;;;17.00;99.90;;;;;;5037194;28;20026;-69
2023/07/23 04:41:12;;;;;;;3.95;1.95;;;17.10;99.90;;;;;;5051502;28;20029;-69
2023/07/23 04:43:40;;;;;;;4.80;1.60;;;17.10;99.90;;;;;;5038132;28;20104;-69
2023/07/23 04:46:06;;;;;;;3.83;1.70;;;17.20;99.90;;;;;;5049270;28;20029;-69
2023/07/23 04:48:37;;;;;;;4.50;1.70;;;17.30;99.90;;;;;;5039955;28;20095;-68
2023/07/23 04:51:09;;;;;;;3.38;1.88;;;17.30;99.90;;;;;;5048715;28;20033;-69
2023/07/23 04:53:35;;;;;;;2.67;1.63;;;17.30;99.90;;;;;;5040331;28;20060;-69
2023/07/23 04:56:03;;;;;;;2.05;1.25;;;17.40;99.90;;;;;;5048780;28;20056;-68
2023/07/23 04:58:30;;;;;;;4.75;2.13;;;17.40;99.90;;;;;;5040960;28;20044;-69
2023/07/23 05:00:58;;;;;;;4.43;1.70;;;17.50;99.90;;;;;;5049190;28;20092;-69
2023/07/23 05:03:24;;;;;;;4.03;1.92;;;17.60;99.90;;;;;;5041554;28;20052;-68
2023/07/23 05:05:51;;;;;;;3.10;1.50;;;17.60;99.90;;;;;;5036444;28;20065;-68
2023/07/23 05:08:18;;;;;;;4.97;1.92;;;17.60;99.90;;;;;;5011379;28;20103;-69
2023/07/23 05:10:45;;;;;;;4.10;2.22;;;17.60;99.90;;;;;;5038627;28;20033;-69
2023/07/23 05:13:15;;;;;;;3.17;1.52;;;17.70;99.90;;;;;;5022133;28;20025;-69
2023/07/23 05:15:41;;;;;;;4.22;2.20;;;17.80;99.90;;;;;;5033773;28;20030;-69
2023/07/23 05:18:08;;;;;;;2.78;1.52;;;17.90;99.90;;;;;;5037966;28;20040;-69
2023/07/23 05:20:34;;;;;;;3.17;1.60;;;18.00;99.90;;;;;;5044204;28;20385;-69
2023/07/23 05:22:59;;;;;;;2.92;1.45;;;18.10;99.90;;;;;;5029207;28;20037;-69
2023/07/23 05:25:25;;;;;;;4.25;2.00;;;18.20;99.90;;;;;;5024057;28;20029;-69
2023/07/23 05:27:51;;;;;;;6.70;2.25;;;18.40;99.90;;;;;;5030403;28;20079;-69
2023/07/23 05:30:18;;;;;;;3.00;1.60;;;18.40;99.90;;;;;;5041627;28;20024;-70
2023/07/23 05:32:44;;;;;;;2.85;1.55;;;18.40;99.90;;;;;;5039894;28;20088;-71
2023/07/23 05:35:11;;;;;;;4.50;1.95;;;18.40;99.90;;;;;;5031418;28;20033;-70
2023/07/23 05:37:37;;;;;;;4.05;1.60;;;18.40;99.90;;;;;;5037708;28;20111;-70
2023/07/23 05:40:04;;;;;;;3.42;1.83;;;18.40;99.90;;;;;;5041643;28;20108;-72
2023/07/23 05:42:29;;;;;;;3.55;1.83;;;18.40;99.90;;;;;;5033610;28;20108;-70
2023/07/23 05:44:55;;;;;;;4.13;2.00;;;18.40;99.90;;;;;;5019858;28;20104;-70
2023/07/23 05:47:21;;;;;;;4.20;1.83;;;18.50;99.90;;;;;;5035202;28;20041;-70
2023/07/23 05:49:46;;;;;;;3.45;1.50;;;18.60;99.90;;;;;;5020182;28;20086;-73
2023/07/23 05:52:12;;;;;;;5.55;2.05;;;18.60;99.90;;;;;;5035816;28;20057;-74
2023/07/23 05:54:44;;;;;;;2.35;1.50;;;18.60;99.90;;;;;;5027592;28;20056;-70
2023/07/23 05:57:13;;;;;;;2.70;1.60;;;18.70;99.90;;;;;;5045858;28;20074;-67
2023/07/23 05:59:39;;;;;;;3.72;1.60;;;18.80;99.90;;;;;;5032437;28;20033;-67
2023/07/23 06:02:05;;;;;;;2.70;1.58;;;18.80;99.90;;;;;;5035605;28;20029;-68
2023/07/23 06:04:31;;;;;;;4.38;1.52;;;18.80;99.90;;;;;;5047481;28;20123;-68
2023/07/23 06:06:57;;;;;;;4.30;1.70;;;18.80;99.90;;;;;;5036732;28;20176;-67
2023/07/23 06:09:23;;;;;;;2.38;1.38;;;18.80;99.90;;;;;;5050608;28;20067;-66
2023/07/23 06:11:48;;;;;;;2.08;1.17;;;19.00;99.90;;;;;;5037407;28;20067;-67
2023/07/23 06:14:14;;;;;;;2.78;1.13;;;19.10;99.90;;;;;;5049764;28;20039;-66
2023/07/23 06:16:40;;;;;;;2.75;1.52;;;19.10;99.90;;;;;;5037081;28;20041;-67
2023/07/23 06:19:06;;;;;;;3.33;1.63;;;19.20;99.90;;;;;;5020153;28;20509;-69
2023/07/23 06:21:31;;;;;;;2.60;1.27;;;19.40;99.90;;;;;;5032941;28;20030;-69
2023/07/23 06:23:57;;;;;;;4.45;1.65;;;19.50;99.90;;;;;;5044745;28;20037;-69
2023/07/23 06:26:23;;;;;;;3.92;1.55;;;19.60;99.90;;;;;;5032743;28;20029;-69
2023/07/23 06:28:49;;;;;;;4.22;1.73;;;19.80;99.90;;;;;;5045432;28;20673;-70
2023/07/23 06:31:14;;;;;;;2.45;1.27;;;19.90;99.90;;;;;;5038853;28;20065;-68
2023/07/23 06:33:40;;;;;;;8.45;1.33;;;20.00;99.90;;;;;;5045082;28;20112;-68
2023/07/23 06:36:06;;;;;;;2.25;1.25;;;20.10;99.90;;;;;;5040236;28;20064;-67
2023/07/23 06:38:31;;;;;;;4.63;1.60;;;20.20;99.90;;;;;;5026128;28;20021;-69
2023/07/23 06:40:57;;;;;;;1.88;0.93;;;20.40;99.90;;;;;;5026766;28;20090;-69
2023/07/23 06:43:24;;;;;;;3.95;1.23;;;20.60;99.90;;;;;;5042962;28;20079;-69
2023/07/23 06:45:51;;;;;;;3.50;1.30;;;20.60;99.90;;;;;;5044594;28;20040;-69
2023/07/23 06:48:20;;;;;;;2.53;0.98;;;20.70;99.90;;;;;;5036608;28;20041;-69
2023/07/23 06:50:47;;;;;;;3.00;1.63;;;20.80;99.90;;;;;;5033460;28;20041;-68
2023/07/23 06:53:15;;;;;;;1.77;1.13;;;20.90;99.90;;;;;;5040309;28;20120;-68
2023/07/23 06:56:03;;;;;;;1.75;0.95;;;21.00;99.90;;;;;;5036211;28;20062;-68
2023/07/23 06:58:32;;;;;;;2.25;1.02;;;21.00;99.90;;;;;;5022627;28;20046;-68
2023/07/23 07:00:58;;;;;;;3.08;1.20;;;21.10;99.90;;;;;;5005721;28;20029;-68
2023/07/23 07:03:24;;;;;;;4.65;1.00;;;21.10;99.90;;;;;;5037146;28;20025;-68
2023/07/23 07:05:51;;;;;;;1.75;0.82;;;21.20;99.90;;;;;;5026113;28;20041;-68
2023/07/23 07:08:17;;;;;;;1.83;1.10;;;21.30;99.90;;;;;;5027731;28;20029;-71
2023/07/23 07:10:42;;;;;;;11.32;4.60;;;21.50;99.90;;;;;;5030495;28;20043;-68
2023/07/23 07:13:11;;;;;;;1.80;1.17;;;21.60;99.90;;;;;;5006544;28;20045;-68
2023/07/23 07:15:37;;;;;;;1.98;0.77;;;21.80;99.90;;;;;;5027705;28;20037;-68
2023/07/23 07:18:03;;;;;;;2.17;1.23;;;22.00;99.90;;;;;;5034346;28;20401;-68
2023/07/23 07:20:29;;;;;;;3.08;0.88;;;22.10;99.90;;;;;;5031891;28;20083;-68
2023/07/23 07:22:55;;;;;;;1.42;0.50;;;22.30;99.90;;;;;;5030206;28;20091;-69
2023/07/23 07:25:20;;;;;;;1.45;0.80;;;22.40;99.90;;;;;;5037572;28;20393;-68
2023/07/23 07:27:46;;;;;;;2.20;1.02;;;22.30;99.90;;;;;;5034494;28;20036;-67
2023/07/23 07:30:12;;;;;;;1.55;1.00;;;22.40;99.90;;;;;;5041491;28;20720;-70
2023/07/23 07:32:37;;;;;;;1.33;0.70;;;22.60;99.70;;;;;;5034029;28;20049;-66
2023/07/23 07:35:04;;;;;;;0.63;0.47;;;22.60;99.60;;;;;;5030067;28;20037;-69
2023/07/23 07:37:35;;;;;;;1.05;0.60;;;22.70;99.40;;;;;;5029384;28;20037;-69
2023/07/23 07:40:01;;;;;;;2.22;1.00;;;22.70;99.40;;;;;;5030383;28;20061;-70
2023/07/23 07:42:27;;;;;;;1.45;0.80;;;22.70;99.60;;;;;;5031896;28;20045;-69
2023/07/23 07:44:53;;;;;;;2.05;0.88;;;22.90;99.00;;;;;;5037060;28;20112;-70
2023/07/23 07:47:19;;;;;;;1.30;0.63;;;23.00;99.00;;;;;;5041683;28;20489;-68
2023/07/23 07:49:45;;;;;;;1.30;0.73;;;22.80;99.00;;;;;;5037164;28;20034;-68
2023/07/23 07:52:11;;;;;;;0.85;0.70;;;23.00;99.00;;;;;;5041002;28;20037;-68
2023/07/23 07:54:37;;;;;;;1.00;0.63;;;23.10;99.10;;;;;;5031162;28;20033;-68
2023/07/23 07:57:04;;;;;;;0.40;0.22;;;23.20;98.80;;;;;;5039333;28;20064;-69
2023/07/23 07:59:30;;;;;;;0.85;0.50;;;23.00;98.30;;;;;;5027974;28;20040;-70
2023/07/23 08:01:57;;;;;;;1.45;0.60;;;23.00;98.50;;;;;;5032976;28;20025;-68
2023/07/23 08:04:23;;;;;;;1.35;0.80;;;22.90;98.80;;;;;;5043826;28;20032;-68
2023/07/23 08:06:50;;;;;;;0.25;0.20;;;23.00;98.90;;;;;;5037910;28;20053;-68
2023/07/23 08:09:18;;;;;;;2.00;0.45;;;23.20;98.50;;;;;;5027201;28;20389;-68
2023/07/23 08:11:47;;;;;;;1.20;0.63;;;23.20;98.40;;;;;;5013872;28;20041;-68
2023/07/23 08:14:18;;;;;;;1.00;0.60;;;23.10;98.70;;;;;;5051850;28;20549;-70
2023/07/23 08:16:45;;;;;;;1.48;0.73;;;23.00;98.50;;;;;;5039261;28;20037;-69
2023/07/23 08:19:11;;;;;;;1.65;0.95;;;23.00;98.60;;;;;;5038874;28;20428;-69
2023/07/23 08:21:37;;;;;;;2.13;0.98;;;23.00;98.80;;;;;;5038348;28;20041;-68
2023/07/23 08:24:03;;;;;;;1.15;0.50;;;23.10;98.70;;;;;;5048999;28;20066;-69
2023/07/23 08:26:32;;;;;;;1.40;0.43;;;23.10;98.70;;;;;;5037740;28;20433;-68
2023/07/23 08:29:03;;;;;;;0.73;0.43;;;23.10;98.60;;;;;;5048626;28;20072;-69
2023/07/23 08:31:29;;;;;;;0.40;0.10;;;23.20;98.60;;;;;;5041543;28;20036;-69
2023/07/23 08:33:56;;;;;;;1.02;0.60;;;23.10;98.90;;;;;;5049081;28;20048;-68
2023/07/23 08:36:23;;;;;;;1.25;0.68;;;23.10;98.90;;;;;;5031594;28;20381;-68
2023/07/23 08:38:49;;;;;;;1.02;0.40;;;23.10;99.00;;;;;;5029008;28;20032;-68
2023/07/23 08:41:44;;;;;;;1.35;0.43;;;23.30;98.90;;;;;;5039384;28;20021;-69
2023/07/23 08:44:34;;;;;;;1.95;0.57;;;23.20;98.80;;;;;;5050997;28;20040;-67
2023/07/23 08:47:12;;;;;;;1.60;0.60;;;23.10;98.90;;;;;;5041452;28;20077;-68
2023/07/23 08:49:43;;;;;;;0.68;0.30;;;23.10;99.10;;;;;;4998267;28;20552;-68
2023/07/23 08:52:12;;;;;;;1.35;0.47;;;23.10;99.10;;;;;;5039578;28;20029;-68
2023/07/23 08:54:41;;;;;;;0.90;0.50;;;23.20;99.00;;;;;;5048530;28;20078;-68
2023/07/23 08:57:08;;;;;;;1.27;0.50;;;23.10;99.30;;;;;;5041966;28;20055;-68
2023/07/23 08:59:36;;;;;;;1.35;0.63;;;23.20;99.10;;;;;;5048841;28;20021;-68
2023/07/23 09:02:02;;;;;;;1.00;0.50;;;23.20;99.10;;;;;;5038515;28;20029;-68
2023/07/23 09:04:28;;;;;;;0.77;0.52;;;23.30;99.10;;;;;;5030892;28;20026;-68
2023/07/23 09:06:58;;;;;;;0.57;0.40;;;23.40;99.10;;;;;;5037033;28;20509;-68
2023/07/23 09:09:24;;;;;;;0.60;0.40;;;23.50;99.00;;;;;;5051192;28;20366;-68
2023/07/23 09:11:50;;;;;;;1.08;0.50;;;23.60;98.60;;;;;;5036840;28;20123;-69
2023/07/23 09:14:16;;;;;;;1.27;0.55;;;23.70;98.40;;;;;;5051107;28;20057;-69
2023/07/23 09:16:46;;;;;;;1.02;0.60;;;23.80;98.50;;;;;;5039584;28;20048;-68
2023/07/23 09:19:20;;;;;;;1.00;0.38;;;23.80;98.30;;;;;;5049790;28;20029;-70
2023/07/23 09:21:46;;;;;;;1.23;0.57;;;23.90;98.50;;;;;;5036177;28;20045;-69
2023/07/23 09:24:15;;;;;;;1.52;0.65;;;24.10;98.50;;;;;;5050407;28;20040;-68
2023/07/23 09:26:42;;;;;;;1.40;0.60;;;24.30;98.10;;;;;;5038787;28;20067;-67
2023/07/23 09:29:11;;;;;;;1.70;0.90;;;24.50;97.80;;;;;;5049075;28;20078;-69
2023/07/23 09:31:42;;;;;;;1.67;0.63;;;24.50;97.90;;;;;;5039711;28;20556;-67
2023/07/23 09:34:08;;;;;;;1.23;0.50;;;24.30;97.30;;;;;;5048561;28;20074;-67
2023/07/23 09:36:36;;;;;;;0.88;0.55;;;24.30;97.10;;;;;;5036810;28;20029;-67
2023/07/23 09:39:04;;;;;;;1.30;0.90;;;24.30;97.30;;;;;;5046562;28;20396;-67
2023/07/23 09:41:38;;;;;;;1.17;0.45;;;24.10;97.70;;;;;;5034139;28;20025;-67
2023/07/23 09:44:12;;;;;;;1.25;0.75;;;24.10;97.80;;;;;;5024796;28;20064;-67
2023/07/23 09:46:46;;;;;;;2.58;0.30;;;24.00;98.10;;;;;;5037829;28;20512;-67
2023/07/23 09:49:15;;;;;;;1.25;0.57;;;24.10;97.80;;;;;;5038870;28;20062;-68
2023/07/23 09:51:51;;;;;;;0.80;0.52;;;24.00;97.20;;;;;;5030787;28;20037;-65
2023/07/23 09:54:17;;;;;;;1.42;0.60;;;23.90;96.80;;;;;;5034284;28;20037;-65
2023/07/23 09:56:45;;;;;;;0.77;0.32;;;23.90;96.20;;;;;;5042892;28;20158;-63
2023/07/23 09:59:12;;;;;;;1.90;0.52;;;23.90;96.60;;;;;;5024858;28;20025;-64
2023/07/23 10:01:38;;;;;;;0.38;0.30;;;23.80;96.50;;;;;;5029779;28;20050;-64
2023/07/23 10:04:05;;;;;;;0.70;0.50;;;23.80;96.50;;;;;;5046640;28;20048;-64
2023/07/23 10:06:31;;;;;;;1.67;0.50;;;23.80;96.30;;;;;;5029644;28;20032;-65
2023/07/23 10:08:57;;;;;;;1.13;0.63;;;24.00;95.90;;;;;;5047063;23;20073;-63
2023/07/23 10:11:23;;;;;;;1.38;0.93;;;24.00;95.60;;;;;;5016627;28;20021;-63
2023/07/23 10:13:50;;;;;;;1.25;0.65;;;24.10;95.80;;;;;;5035402;28;20504;-63
2023/07/23 10:16:22;;;;;;;0.98;0.55;;;24.30;95.30;;;;;;5041927;28;20100;-63
2023/07/23 10:18:50;;;;;;;1.60;0.68;;;24.60;95.40;;;;;;5043363;28;20029;-63
2023/07/23 10:21:18;;;;;;;1.65;0.60;;;24.90;95.10;;;;;;5041832;28;20090;-63
2023/07/23 10:23:55;;;;;;;1.33;0.52;;;25.30;94.50;;;;;;5026724;28;20035;-63
2023/07/23 10:26:25;;;;;;;2.05;0.80;;;25.30;94.50;;;;;;5025257;28;20059;-63
2023/07/23 10:28:58;;;;;;;2.03;0.80;;;25.30;93.80;;;;;;5022014;28;20110;-64
2023/07/23 10:31:27;;;;;;;2.00;0.90;;;25.30;93.70;;;;;;5035451;28;20045;-63
2023/07/23 10:33:53;;;;;;;2.95;1.25;;;25.10;93.30;;;;;;5039165;28;20021;-63
2023/07/23 10:36:22;;;;;;;1.02;0.50;;;25.30;93.50;;;;;;5042368;28;20036;-64
2023/07/23 10:39:14;;;;;;;1.75;0.57;;;25.30;92.70;;;;;;5039678;28;20025;-64
2023/07/23 10:41:55;;;;;;;0.95;0.50;;;25.50;92.80;;;;;;5031779;28;20041;-64
2023/07/23 10:44:28;;;;;;;1.33;0.60;;;25.60;92.20;;;;;;5039495;28;20029;-62
2023/07/23 10:46:57;;;;;;;2.25;0.82;;;25.50;92.00;;;;;;5030219;28;20481;-63
2023/07/23 10:49:29;;;;;;;2.65;1.00;;;25.40;91.70;;;;;;5008551;28;20038;-63
2023/07/23 10:52:17;;;;;;;2.35;1.00;;;25.70;91.80;;;;;;5051196;28;20155;-64
2023/07/23 10:54:42;;;;;;;1.15;0.50;;;25.90;91.00;;;;;;5024967;28;20527;-64
2023/07/23 10:57:22;;;;;;;1.25;0.50;;;25.80;90.80;;;;;;5052859;28;20104;-64
2023/07/23 10:59:53;;;;;;;1.42;0.68;;;25.50;90.60;;;;;;5022580;28;20049;-64
2023/07/23 11:02:25;;;;;;;2.00;0.85;;;25.70;90.60;;;;;;4996876;28;20025;-64
2023/07/23 11:04:55;;;;;;;1.17;0.63;;;25.90;90.10;;;;;;5024404;28;20109;-63
2023/07/23 11:07:28;;;;;;;0.70;0.47;;;25.80;89.70;;;;;;4997213;28;20112;-63
2023/07/23 11:10:16;;;;;;;1.20;0.73;;;25.80;89.80;;;;;;5024712;28;20029;-63
2023/07/23 11:12:43;;;;;;;0.73;0.40;;;25.60;90.00;;;;;;5030534;28;20099;-64
2023/07/23 11:15:17;;;;;;;1.45;0.47;;;25.70;90.00;;;;;;5026399;28;20045;-63
2023/07/23 11:17:43;;;;;;;0.57;0.40;;;25.80;88.70;;;;;;5046424;28;20105;-64
2023/07/23 11:20:10;;;;;;;1.15;0.68;;;25.60;88.80;;;;;;5011283;28;20097;-63
2023/07/23 11:22:42;;;;;;;0.80;0.68;;;25.60;89.00;;;;;;5015146;28;20490;-63
2023/07/23 11:25:15;;;;;;;0.55;0.43;;;25.70;88.40;;;;;;5026462;28;20033;-63
2023/07/23 11:27:41;;;;;;;2.33;0.90;;;25.60;87.50;;;;;;5045530;28;20079;-63
2023/07/23 11:30:12;;;;;;;1.40;0.80;;;25.70;88.20;;;;;;5025907;28;20041;-62
2023/07/23 11:32:38;;;;;;;1.48;1.13;;;25.60;87.30;;;;;;5048660;28;20034;-63
2023/07/23 11:35:04;;;;;;;1.92;0.82;;;25.50;88.40;;;;;;5025195;28;20474;-63
2023/07/23 11:37:30;;;;;;;0.77;0.60;;;25.60;88.70;;;;;;5030609;28;20393;-63
2023/07/23 11:39:56;;;;;;;1.23;0.65;;;25.50;88.10;;;;;;5024063;28;20076;-63
2023/07/23 11:42:22;;;;;;;1.38;0.60;;;25.50;88.30;;;;;;5050489;28;20037;-63
2023/07/23 11:45:04;;;;;;;4.38;0.90;;;25.70;88.20;;;;;;5037398;28;20420;-63
2023/07/23 11:47:30;;;;;;;1.23;0.77;;;25.90;87.10;;;;;;4981224;28;20037;-63
2023/07/23 11:49:56;;;;;;;2.78;0.60;;;25.90;87.60;;;;;;5022642;28;20028;-63
2023/07/23 11:52:23;;;;;;;0.43;0.32;;;26.00;87.00;;;;;;5011892;28;20037;-63
2023/07/23 11:54:50;;;;;;;4.72;0.98;;;25.90;87.10;;;;;;5037414;28;20060;-63
2023/07/23 11:57:17;;;;;;;1.08;0.55;;;26.00;87.40;;;;;;5051370;28;20024;-63
2023/07/23 11:59:43;;;;;;;1.73;0.60;;;25.90;87.40;;;;;;5023453;28;20033;-63
2023/07/23 12:02:10;;;;;;;1.70;0.80;;;26.00;87.90;;;;;;5034023;28;20029;-63
2023/07/23 12:04:39;;;;;;;1.23;0.55;;;26.00;87.50;;;;;;5035875;28;20430;-63
2023/07/23 12:07:08;;;;;;;2.10;0.88;;;26.10;87.10;;;;;;5051148;28;20036;-63
2023/07/23 12:09:34;;;;;;;1.65;0.75;;;26.10;87.10;;;;;;5040093;28;20521;-62
2023/07/23 12:12:00;;;;;;;1.05;0.60;;;26.00;86.90;;;;;;5050424;28;20055;-63
2023/07/23 12:14:26;;;;;;;1.90;0.73;;;26.10;87.10;;;;;;5024039;28;20037;-62
2023/07/23 12:16:56;;;;;;;1.83;0.52;;;26.30;85.60;;;;;;5049167;28;20069;-63
2023/07/23 12:19:22;;;;;;;1.30;0.90;;;26.30;84.20;;;;;;5026356;28;20028;-63
2023/07/23 12:21:58;;;;;;;1.70;0.82;;;26.40;84.20;;;;;;5048370;28;20041;-64
2023/07/23 12:24:27;;;;;;;0.60;0.40;;;26.50;83.50;;;;;;5036834;28;20017;-64
2023/07/23 12:26:59;;;;;;;1.77;0.98;;;26.60;83.60;;;;;;5031589;28;20085;-63
2023/07/23 12:29:27;;;;;;;0.98;0.65;;;26.60;83.60;;;;;;5023971;28;20028;-62
2023/07/23 12:32:13;;;;;;;1.15;0.70;;;26.80;83.00;;;;;;5031252;28;20037;-62
2023/07/23 12:34:45;;;;;;;3.80;0.50;;;27.10;83.00;;;;;;5040386;28;20049;-63
2023/07/23 12:37:12;;;;;;;2.38;0.93;;;27.10;82.00;;;;;;5051512;28;20100;-63
2023/07/23 12:39:38;;;;;;;2.42;0.68;;;27.30;81.20;;;;;;5035626;28;20430;-63
2023/07/23 12:42:04;;;;;;;1.85;0.85;;;27.20;80.60;;;;;;5032399;28;20079;-63
2023/07/23 12:44:30;;;;;;;1.83;1.15;;;27.10;79.90;;;;;;5022702;28;20021;-63
2023/07/23 12:46:56;;;;;;;2.78;1.00;;;27.10;80.10;;;;;;5031224;28;20025;-63
2023/07/23 12:49:22;;;;;;;1.80;0.90;;;27.10;80.40;;;;;;5040752;28;20040;-64